^^
Datos históricos de la estación: Murcia-Puente Tocinos
Diario Informe para Diciembre 2, 2019 Unidades:  Ambas    Ingés   Métrico
Diario Semanal Mensual Anual
  Máxima: Mínima: Promedio:
Temperatura: 58.8 °F /  14.9 °C 54.7 °F /  12.6 °C 56.1 °F /  13.4 °C
Punto de rocio: 54.5 °F /  12.5 °C 49.8 °F /  9.9 °C 52.3 °F /  11.3 °C
Humedad: 96% 79% 88%
Velocidad viento: 11.2mph /  18km/h - 4.2mph /  6.7km/h
Racha viento: 21mph /  33.8km/h - -
Viento- - ESE
Presión: 29.9 in /  1013.4 hPa 29.8 in /  1007.7 hPa -
Precipitación: 0.38 in /  9.7 mm    
 
 
Tabla de datos para Diciembre 2, 2019
Hora Temperatura Punto de rocio Presión Viento Velocidad viento Racha viento Humedad Intensidad lluvia(por hora) Nubes
00:04 55.2 °F /  12.9 °C 50.7 °F /  10.4 °C 29.8in /  1008.9hPa NNE 4.1mph /  6.6km/h 6.9mph /  11.1km/h 85% 0in /  0.0mm
00:09 55.2 °F /  12.9 °C 50.7 °F /  10.4 °C 29.8in /  1008.9hPa NNE 4mph /  6.5km/h 7mph /  11.3km/h 85% 0in /  0.0mm
00:14 55.2 °F /  12.9 °C 50.7 °F /  10.4 °C 29.8in /  1008.9hPa NE 3.2mph /  5.2km/h 5mph /  8km/h 85% 0in /  0.0mm
00:19 55.2 °F /  12.9 °C 50.7 °F /  10.4 °C 29.8in /  1008.9hPa NE 2.9mph /  4.7km/h 5mph /  8km/h 85% 0in /  0.0mm
00:24 55.2 °F /  12.9 °C 50.7 °F /  10.4 °C 29.8in /  1009.0hPa NE 0.8mph /  1.3km/h 3.1mph /  5km/h 85% 0in /  0.0mm
00:29 55.2 °F /  12.9 °C 50.7 °F /  10.4 °C 29.8in /  1009.0hPa Calm   4.7mph /  7.6km/h 85% 0in /  0.0mm
00:34 55.2 °F /  12.9 °C 50.7 °F /  10.4 °C 29.8in /  1009.0hPa ONO 1.7mph /  2.8km/h 5.2mph /  8.4km/h 85% 0in /  0.0mm
00:39 55.2 °F /  12.9 °C 50.7 °F /  10.4 °C 29.8in /  1009.0hPa ONO 2.4mph /  3.9km/h 5mph /  8km/h 85% 0in /  0.0mm
00:44 55.2 °F /  12.9 °C 50.7 °F /  10.4 °C 29.8in /  1009.0hPa Oeste 2.4mph /  3.9km/h 4mph /  6.4km/h 85% 0in /  0.0mm
00:49 55.2 °F /  12.9 °C 50.5 °F /  10.3 °C 29.8in /  1009.0hPa Oeste 2.4mph /  3.9km/h 4mph /  6.4km/h 84.1% 0in /  0.0mm
00:54 55.2 °F /  12.9 °C 50.5 °F /  10.3 °C 29.8in /  1009.0hPa ONO 2mph /  3.2km/h 5.9mph /  9.5km/h 84% 0in /  0.0mm
00:59 55.4 °F /  13 °C 50.5 °F /  10.3 °C 29.8in /  1008.9hPa NNE 1.8mph /  2.9km/h 6mph /  9.7km/h 83.9% 0in /  0.0mm
01:04 55.6 °F /  13.1 °C 50.5 °F /  10.3 °C 29.8in /  1008.9hPa NE 1.9mph /  3.1km/h 6mph /  9.7km/h 83% 0in /  0.0mm
01:09 55.6 °F /  13.1 °C 50.5 °F /  10.3 °C 29.8in /  1008.9hPa ENE 2mph /  3.2km/h 5mph /  8km/h 83% 0in /  0.0mm
01:14 55.8 °F /  13.2 °C 50.7 °F /  10.4 °C 29.8in /  1008.8hPa NE 2mph /  3.2km/h 8.1mph /  13km/h 83% 0in /  0.0mm
01:19 55.8 °F /  13.2 °C 50.7 °F /  10.4 °C 29.8in /  1008.8hPa NNE 2mph /  3.2km/h 8mph /  12.9km/h 83% 0in /  0.0mm
01:24 55.9 °F /  13.3 °C 50.9 °F /  10.5 °C 29.8in /  1008.8hPa NE 3.2mph /  5.1km/h 9.2mph /  14.8km/h 83% 0in /  0.0mm
01:29 55.9 °F /  13.3 °C 50.9 °F /  10.5 °C 29.8in /  1008.7hPa NE 3.6mph /  5.8km/h 9.2mph /  14.8km/h 83% 0in /  0.0mm
01:34 56.1 °F /  13.4 °C 51.1 °F /  10.6 °C 29.8in /  1008.7hPa NE 5.2mph /  8.4km/h 9.2mph /  14.8km/h 83% 0in /  0.0mm
01:39 55.9 °F /  13.3 °C 51.1 °F /  10.6 °C 29.8in /  1008.7hPa NE 5.9mph /  9.5km/h 9.2mph /  14.8km/h 83.4% 0in /  0.0mm
01:44 55.9 °F /  13.3 °C 51.3 °F /  10.7 °C 29.8in /  1008.6hPa NE 4.7mph /  7.6km/h 12.5mph /  20.1km/h 84% 0in /  0.0mm
01:49 55.9 °F /  13.3 °C 51.3 °F /  10.7 °C 29.8in /  1008.6hPa NE 4.3mph /  6.9km/h 13mph /  20.9km/h 84% 0in /  0.0mm
01:54 55.9 °F /  13.3 °C 51.1 °F /  10.6 °C 29.8in /  1008.6hPa NE 5.5mph /  8.8km/h 10mph /  16.1km/h 84% 0in /  0.0mm
01:59 55.8 °F /  13.2 °C 51.3 °F /  10.7 °C 29.8in /  1008.5hPa NE 5.9mph /  9.5km/h 9mph /  14.5km/h 84.8% 0in /  0.0mm
02:04 55.8 °F /  13.2 °C 51.3 °F /  10.7 °C 29.8in /  1008.5hPa NE 4.7mph /  7.5km/h 7mph /  11.3km/h 85% 0in /  0.0mm
02:09 55.8 °F /  13.2 °C 51.3 °F /  10.7 °C 29.8in /  1008.5hPa NE 4.3mph /  6.9km/h 9.2mph /  14.8km/h 85.2% 0in /  0.0mm
02:14 55.6 °F /  13.1 °C 51.4 °F /  10.8 °C 29.8in /  1008.4hPa NE 5mph /  8km/h 10.4mph /  16.7km/h 86% 0in /  0.0mm
02:19 55.8 °F /  13.2 °C 51.6 °F /  10.9 °C 29.8in /  1008.4hPa NE 5.2mph /  8.4km/h 10mph /  16.1km/h 86.5% 0in /  0.0mm
02:24 55.8 °F /  13.2 °C 52 °F /  11.1 °C 29.8in /  1008.5hPa NE 5.7mph /  9.2km/h 11.5mph /  18.5km/h 87% 0in /  0.0mm
02:29 55.8 °F /  13.2 °C 52 °F /  11.1 °C 29.8in /  1008.5hPa NE 5.9mph /  9.5km/h 12mph /  19.3km/h 87% 0in /  0.0mm
02:34 55.8 °F /  13.2 °C 52.2 °F /  11.2 °C 29.8in /  1008.5hPa NNE 6.1mph /  9.8km/h 10.7mph /  17.2km/h 87.5% 0in /  0.0mm
02:39 55.6 °F /  13.1 °C 52.2 °F /  11.2 °C 29.8in /  1008.5hPa NNE 6.2mph /  10km/h 11mph /  17.7km/h 88% 0in /  0.0mm
02:44 55.6 °F /  13.1 °C 52 °F /  11.1 °C 29.8in /  1008.3hPa NNE 5.7mph /  9.1km/h 9mph /  14.5km/h 88% 0in /  0.0mm
02:49 55.4 °F /  13 °C 52 °F /  11.1 °C 29.8in /  1008.3hPa NNE 5.4mph /  8.7km/h 7.4mph /  11.9km/h 88% 0in /  0.0mm
02:54 55.2 °F /  12.9 °C 52 °F /  11.1 °C 29.8in /  1008.3hPa NNE 4.4mph /  7.1km/h 7mph /  11.3km/h 89% 0in /  0.0mm
02:59 55.2 °F /  12.9 °C 52 °F /  11.1 °C 29.8in /  1008.2hPa NNE 4mph /  6.5km/h 7mph /  11.3km/h 89% 0in /  0.0mm
03:04 55 °F /  12.8 °C 52 °F /  11.1 °C 29.8in /  1008.2hPa NNE 4mph /  6.5km/h 6.9mph /  11.1km/h 89% 0in /  0.0mm
03:09 54.9 °F /  12.7 °C 51.6 °F /  10.9 °C 29.8in /  1008.2hPa NE 4mph /  6.5km/h 8.5mph /  13.7km/h 89% 0in /  0.0mm
03:14 54.9 °F /  12.7 °C 51.8 °F /  11 °C 29.8in /  1008.1hPa NE 4.8mph /  7.8km/h 11.5mph /  18.5km/h 89.8% 0in /  0.0mm
03:19 54.7 °F /  12.6 °C 51.8 °F /  11 °C 29.8in /  1008.1hPa NE 5.2mph /  8.4km/h 15mph /  24.1km/h 90% 0in /  0.0mm
03:24 54.7 °F /  12.6 °C 52 °F /  11.1 °C 29.8in /  1008.1hPa NE 6.9mph /  11.1km/h 15mph /  24.1km/h 90.2% 0in /  0.0mm
03:29 54.9 °F /  12.7 °C 52.3 °F /  11.3 °C 29.8in /  1007.7hPa NE 7.6mph /  12.2km/h 12mph /  19.3km/h 91% 0in /  0.0mm
03:34 54.9 °F /  12.7 °C 52.3 °F /  11.3 °C 29.8in /  1007.7hPa NNE 6.4mph /  10.3km/h 10mph /  16.1km/h 91% 0in /  0.0mm
03:39 54.9 °F /  12.7 °C 52.3 °F /  11.3 °C 29.8in /  1008.0hPa NNE 5.9mph /  9.5km/h 9mph /  14.5km/h 91% 0in /  0.0mm
03:44 54.9 °F /  12.7 °C 52.3 °F /  11.3 °C 29.8in /  1008.0hPa NNE 4.5mph /  7.3km/h 8mph /  12.9km/h 91% 0in /  0.0mm
03:49 54.9 °F /  12.7 °C 52.3 °F /  11.3 °C 29.8in /  1008.0hPa NNE 4mph /  6.5km/h 3mph /  4.8km/h 91% 0in /  0.0mm
03:54 54.9 °F /  12.7 °C 52.3 °F /  11.3 °C 29.8in /  1008.3hPa NNE 1.2mph /  1.9km/h 2.9mph /  4.7km/h 91% 0in /  0.0mm
03:59 54.9 °F /  12.7 °C 52.3 °F /  11.3 °C 29.8in /  1008.3hPa Calm   3.5mph /  5.6km/h 91% 0in /  0.0mm
04:04 55 °F /  12.8 °C 52.5 °F /  11.4 °C 29.8in /  1008.3hPa NE 1.3mph /  2.1km/h 4mph /  6.4km/h 91% 0in /  0.0mm
04:09 55 °F /  12.8 °C 52.5 °F /  11.4 °C 29.8in /  1008.5hPa SE 1.8mph /  2.9km/h 5mph /  8km/h 91% 0in /  0.0mm
04:14 55 °F /  12.8 °C 52.5 °F /  11.4 °C 29.8in /  1008.5hPa SE 2.6mph /  4.2km/h 6.2mph /  10km/h 91% 0in /  0.0mm
04:19 55.2 °F /  12.9 °C 52.5 °F /  11.4 °C 29.8in /  1008.5hPa ESE 2.9mph /  4.7km/h 6mph /  9.7km/h 91% 0in /  0.0mm
04:24 55.2 °F /  12.9 °C 52.5 °F /  11.4 °C 29.8in /  1008.5hPa ESE 2.9mph /  4.7km/h 6mph /  9.7km/h 91% 0in /  0.0mm
04:29 55.2 °F /  12.9 °C 52.5 °F /  11.4 °C 29.8in /  1008.4hPa SE 2.9mph /  4.7km/h 5.8mph /  9.3km/h 91% 0in /  0.0mm
04:34 55.2 °F /  12.9 °C 52.7 °F /  11.5 °C 29.8in /  1008.4hPa SE 2.9mph /  4.7km/h 6mph /  9.7km/h 91% 0in /  0.0mm
04:39 55.4 °F /  13 °C 52.9 °F /  11.6 °C 29.8in /  1008.4hPa SE 2.9mph /  4.7km/h 4mph /  6.4km/h 91% 0in /  0.0mm
04:44 55.6 °F /  13.1 °C 53.1 °F /  11.7 °C 29.8in /  1008.3hPa SE 1.8mph /  2.9km/h 4.7mph /  7.6km/h 91% 0in /  0.0mm
04:49 55.6 °F /  13.1 °C 53.1 °F /  11.7 °C 29.8in /  1008.3hPa Este 1.4mph /  2.2km/h 5mph /  8km/h 91% 0in /  0.0mm
04:54 55.6 °F /  13.1 °C 52.9 °F /  11.6 °C 29.8in /  1008.3hPa Este 2.1mph /  3.4km/h 8.1mph /  13km/h 90.6% 0in /  0.0mm
04:59 55.6 °F /  13.1 °C 52.7 °F /  11.5 °C 29.8in /  1008.3hPa Este 2.4mph /  3.9km/h 8mph /  12.9km/h 90% 0in /  0.0mm
05:04 55.6 °F /  13.1 °C 52.5 °F /  11.4 °C 29.8in /  1008.3hPa ENE 2.8mph /  4.5km/h 5mph /  8km/h 89.6% 0in /  0.0mm
05:09 55.6 °F /  13.1 °C 52.3 °F /  11.3 °C 29.8in /  1008.3hPa ENE 2.9mph /  4.7km/h 5.8mph /  9.3km/h 89% 0in /  0.0mm
05:14 55.8 °F /  13.2 °C 52.3 °F /  11.3 °C 29.8in /  1008.3hPa Este 2.9mph /  4.7km/h 6mph /  9.7km/h 88.5% 0in /  0.0mm
05:19 55.8 °F /  13.2 °C 52.2 °F /  11.2 °C 29.8in /  1008.3hPa NE 2.9mph /  4.7km/h 8.1mph /  13km/h 87.4% 0in /  0.0mm
05:24 55.9 °F /  13.3 °C 51.8 °F /  11 °C 29.8in /  1008.3hPa NNE 3.7mph /  6km/h 8.1mph /  13km/h 85.9% 0in /  0.0mm
05:29 56.1 °F /  13.4 °C 51.8 °F /  11 °C 29.8in /  1008.3hPa NNE 4mph /  6.5km/h 10mph /  16.1km/h 85% 0in /  0.0mm
05:34 56.5 °F /  13.6 °C 51.6 °F /  10.9 °C 29.8in /  1008.3hPa NE 4.8mph /  7.8km/h 10.4mph /  16.7km/h 84% 0in /  0.0mm
05:39 56.5 °F /  13.6 °C 51.8 °F /  11 °C 29.8in /  1008.4hPa ENE 5.2mph /  8.4km/h 9mph /  14.5km/h 84.4% 0in /  0.0mm
05:44 56.5 °F /  13.6 °C 52 °F /  11.1 °C 29.8in /  1008.4hPa NE 4.5mph /  7.3km/h 11.8mph /  19km/h 85% 0in /  0.0mm
05:49 56.5 °F /  13.6 °C 52 °F /  11.1 °C 29.8in /  1008.4hPa NE 4.3mph /  6.9km/h 12mph /  19.3km/h 85% 0in /  0.0mm
05:54 56.5 °F /  13.6 °C 52 °F /  11.1 °C 29.8in /  1008.7hPa NE 4.3mph /  6.9km/h 9.7mph /  15.6km/h 84.9% 0in /  0.0mm
05:59 56.5 °F /  13.6 °C 51.6 °F /  10.9 °C 29.8in /  1008.7hPa NNE 4.3mph /  6.9km/h 11.8mph /  19km/h 84% 0in /  0.0mm
06:04 56.5 °F /  13.6 °C 51.6 °F /  10.9 °C 29.8in /  1008.7hPa NNE 5.9mph /  9.5km/h 13.8mph /  22.2km/h 84% 0in /  0.0mm
06:09 56.3 °F /  13.5 °C 51.4 °F /  10.8 °C 29.8in /  1008.7hPa NE 6.4mph /  10.3km/h 15.2mph /  24.5km/h 83.7% 0in /  0.0mm
06:14 56.1 °F /  13.4 °C 51.1 °F /  10.6 °C 29.8in /  1008.4hPa NE 7.3mph /  11.7km/h 15mph /  24.1km/h 83% 0in /  0.0mm
06:19 55.9 °F /  13.3 °C 50.9 °F /  10.5 °C 29.8in /  1008.4hPa NE 7.6mph /  12.2km/h 20.8mph /  33.5km/h 83% 0in /  0.0mm
06:24 55.9 °F /  13.3 °C 50.5 °F /  10.3 °C 29.8in /  1008.4hPa NE 9.4mph /  15.2km/h 21mph /  33.8km/h 82.2% 0in /  0.0mm
06:29 55.8 °F /  13.2 °C 50.4 °F /  10.2 °C 29.8in /  1008.3hPa NE 10.2mph /  16.4km/h 19mph /  30.6km/h 82% 0in /  0.0mm
06:34 55.8 °F /  13.2 °C 50.4 °F /  10.2 °C 29.8in /  1008.3hPa NE 10.6mph /  17km/h 19mph /  30.6km/h 82.4% 0in /  0.0mm
06:39 55.8 °F /  13.2 °C 50.4 °F /  10.2 °C 29.8in /  1008.7hPa NE 10.7mph /  17.2km/h 16mph /  25.7km/h 82% 0in /  0.0mm
06:44 55.8 °F /  13.2 °C 50.4 °F /  10.2 °C 29.8in /  1008.7hPa NE 9.3mph /  14.9km/h 15.2mph /  24.5km/h 82% 0in /  0.0mm
06:49 55.8 °F /  13.2 °C 50.5 °F /  10.3 °C 29.8in /  1008.7hPa NE 8.7mph /  14km/h 15mph /  24.1km/h 82.8% 0in /  0.0mm
06:54 55.6 °F /  13.1 °C 50.5 °F /  10.3 °C 29.8in /  1008.9hPa ENE 6.9mph /  11.1km/h 10mph /  16.1km/h 83% 0in /  0.0mm
06:59 55.6 °F /  13.1 °C 50.5 °F /  10.3 °C 29.8in /  1008.9hPa NE 6.2mph /  10km/h 8.1mph /  13km/h 83.1% 0in /  0.0mm
07:04 55.4 °F /  13 °C 50.5 °F /  10.3 °C 29.8in /  1008.9hPa NE 4.7mph /  7.6km/h 8mph /  12.9km/h 84% 0in /  0.0mm
07:09 55.2 °F /  12.9 °C 50.5 °F /  10.3 °C 29.8in /  1009.0hPa NE 4.3mph /  6.9km/h 9.2mph /  14.8km/h 84% 0in /  0.0mm
07:14 55.2 °F /  12.9 °C 50.7 °F /  10.4 °C 29.8in /  1009.0hPa NE 5mph /  8km/h 9mph /  14.5km/h 84.9% 0in /  0.0mm
07:19 55.2 °F /  12.9 °C 50.7 °F /  10.4 °C 29.8in /  1009.0hPa NE 5.2mph /  8.4km/h 8.1mph /  13km/h 85% 0in /  0.0mm
07:24 55.2 °F /  12.9 °C 50.7 °F /  10.4 °C 29.8in /  1009.3hPa NE 4.8mph /  7.8km/h 8mph /  12.9km/h 85% 0in /  0.0mm
07:29 55.2 °F /  12.9 °C 50.7 °F /  10.4 °C 29.8in /  1009.3hPa NNE 4.7mph /  7.6km/h 9.2mph /  14.8km/h 85% 0in /  0.0mm
07:34 55.2 °F /  12.9 °C 50.7 °F /  10.4 °C 29.8in /  1009.3hPa NNE 4.7mph /  7.6km/h 9.7mph /  15.6km/h 85% 0in /  0.0mm
07:39 55.2 °F /  12.9 °C 50.7 °F /  10.4 °C 29.8in /  1009.4hPa NE 4.7mph /  7.6km/h 10mph /  16.1km/h 85% 0in /  0.0mm
07:44 55.2 °F /  12.9 °C 50.5 °F /  10.3 °C 29.8in /  1009.4hPa NE 5.1mph /  8.2km/h 9mph /  14.5km/h 84.3% 0in /  0.0mm
07:49 55.2 °F /  12.9 °C 50.5 °F /  10.3 °C 29.8in /  1009.4hPa ENE 5.2mph /  8.4km/h 8mph /  12.9km/h 84% 0in /  0.0mm
07:54 55.4 °F /  13 °C 50.5 °F /  10.3 °C 29.8in /  1009.6hPa NE 3.7mph /  5.9km/h 7.4mph /  11.9km/h 84% 0in /  0.0mm
07:59 55.4 °F /  13 °C 50.5 °F /  10.3 °C 29.8in /  1009.6hPa NE 3.1mph /  5km/h 10mph /  16.1km/h 83.8% 0in /  0.0mm
08:04 55.4 °F /  13 °C 50.2 °F /  10.1 °C 29.8in /  1009.6hPa NE 4.7mph /  7.6km/h 12.7mph /  20.4km/h 82.7% 0in /  0.0mm
08:09 55.6 °F /  13.1 °C 50.2 °F /  10.1 °C 29.8in /  1009.8hPa NE 5.2mph /  8.4km/h 13.5mph /  21.7km/h 82% 0in /  0.0mm
08:14 55.6 °F /  13.1 °C 50.2 °F /  10.1 °C 29.8in /  1009.8hPa NNE 6.9mph /  11.1km/h 14mph /  22.5km/h 81.8% 0in /  0.0mm
08:19 55.6 °F /  13.1 °C 49.8 °F /  9.9 °C 29.8in /  1009.8hPa NE 7.6mph /  12.2km/h 12.7mph /  20.4km/h 81% 0in /  0.0mm
08:24 55.6 °F /  13.1 °C 49.8 °F /  9.9 °C 29.8in /  1010.0hPa NE 6.6mph /  10.6km/h 13mph /  20.9km/h 81% 0in /  0.0mm
08:29 55.6 °F /  13.1 °C 50 °F /  10 °C 29.8in /  1010.0hPa NE 6.2mph /  10km/h 8.1mph /  13km/h 81.3% 0in /  0.0mm
08:34 55.6 °F /  13.1 °C 50.2 °F /  10.1 °C 29.8in /  1010.0hPa NE 4.6mph /  7.4km/h 10.4mph /  16.7km/h 82% 0in /  0.0mm
08:39 55.6 °F /  13.1 °C 50.2 °F /  10.1 °C 29.8in /  1010.4hPa NE 4mph /  6.5km/h 10.4mph /  16.7km/h 82% 0in /  0.0mm
08:44 55.4 °F /  13 °C 50.2 °F /  10.1 °C 29.8in /  1010.4hPa NNE 5.4mph /  8.7km/h 10mph /  16.1km/h 82.4% 0.01in /  0.3mm
08:49 55.4 °F /  13 °C 50.4 °F /  10.2 °C 29.8in /  1010.4hPa NE 5.9mph /  9.5km/h 9.2mph /  14.8km/h 83.1% 0.01in /  0.3mm
08:54 55.2 °F /  12.9 °C 50.5 °F /  10.3 °C 29.8in /  1010.5hPa NNE 5.4mph /  8.7km/h 10.4mph /  16.7km/h 84% 0.01in /  0.3mm
08:59 55.2 °F /  12.9 °C 50.7 °F /  10.4 °C 29.8in /  1010.5hPa NNE 5.2mph /  8.4km/h 10mph /  16.1km/h 84.5% 0.01in /  0.3mm
09:04 55.2 °F /  12.9 °C 50.7 °F /  10.4 °C 29.8in /  1010.5hPa NNE 5.3mph /  8.6km/h 9.2mph /  14.8km/h 85% 0.01in /  0.3mm
09:09 55.2 °F /  12.9 °C 50.7 °F /  10.4 °C 29.8in /  1010.6hPa NE 5.4mph /  8.7km/h 10.4mph /  16.7km/h 85% 0.01in /  0.3mm
09:14 55.4 °F /  13 °C 50.9 °F /  10.5 °C 29.8in /  1010.6hPa NNE 5.8mph /  9.3km/h 10mph /  16.1km/h 85% 0.01in /  0.3mm
09:19 55.6 °F /  13.1 °C 51.1 °F /  10.6 °C 29.8in /  1010.6hPa NNE 5.9mph /  9.5km/h 10mph /  16.1km/h 85% 0.01in /  0.3mm
09:24 55.6 °F /  13.1 °C 51.1 °F /  10.6 °C 29.8in /  1010.6hPa NNE 5.5mph /  8.9km/h 10mph /  16.1km/h 85% 0.01in /  0.3mm
09:29 55.6 °F /  13.1 °C 51.1 °F /  10.6 °C 29.8in /  1010.6hPa NNE 5.4mph /  8.7km/h 10mph /  16.1km/h 85.2% 0.01in /  0.3mm
09:34 55.6 °F /  13.1 °C 51.4 °F /  10.8 °C 29.8in /  1010.6hPa NNE 5.8mph /  9.3km/h 10mph /  16.1km/h 86% 0.01in /  0.3mm
09:39 55.6 °F /  13.1 °C 51.4 °F /  10.8 °C 29.9in /  1010.8hPa NNE 5.9mph /  9.5km/h 8mph /  12.9km/h 86% 0.01in /  0.3mm
09:44 55.6 °F /  13.1 °C 51.4 °F /  10.8 °C 29.9in /  1010.8hPa North 4.2mph /  6.8km/h 7mph /  11.3km/h 86% 0.01in /  0.3mm
09:49 55.6 °F /  13.1 °C 51.4 °F /  10.8 °C 29.9in /  1010.8hPa NNE 3.6mph /  5.8km/h 9.2mph /  14.8km/h 86% 0in /  0.0mm
09:54 55.6 °F /  13.1 °C 51.4 °F /  10.8 °C 29.9in /  1010.9hPa NNE 3.9mph /  6.2km/h 10.4mph /  16.7km/h 86% 0in /  0.0mm
09:59 55.6 °F /  13.1 °C 51.4 °F /  10.8 °C 29.9in /  1010.9hPa North 4mph /  6.5km/h 10.7mph /  17.2km/h 86% 0in /  0.0mm
10:04 55.6 °F /  13.1 °C 51.4 °F /  10.8 °C 29.9in /  1010.9hPa NNE 5.1mph /  8.2km/h 11mph /  17.7km/h 86% 0in /  0.0mm
10:09 55.6 °F /  13.1 °C 51.4 °F /  10.8 °C 29.9in /  1011.3hPa NNE 5.4mph /  8.7km/h 11mph /  17.7km/h 86% 0in /  0.0mm
10:14 55.6 °F /  13.1 °C 51.4 °F /  10.8 °C 29.9in /  1011.3hPa NNE 4.9mph /  7.9km/h 9.2mph /  14.8km/h 86% 0in /  0.0mm
10:19 55.6 °F /  13.1 °C 51.3 °F /  10.7 °C 29.9in /  1011.3hPa NNE 4.7mph /  7.6km/h 9.7mph /  15.6km/h 85.5% 0in /  0.0mm
10:24 55.8 °F /  13.2 °C 51.3 °F /  10.7 °C 29.9in /  1011.4hPa NNE 5.2mph /  8.4km/h 10mph /  16.1km/h 85% 0in /  0.0mm
10:29 55.8 °F /  13.2 °C 51.3 °F /  10.7 °C 29.9in /  1011.4hPa NNE 5.4mph /  8.7km/h 8.1mph /  13km/h 85% 0in /  0.0mm
10:34 55.8 °F /  13.2 °C 51.3 °F /  10.7 °C 29.9in /  1011.4hPa NNE 5.3mph /  8.5km/h 8.1mph /  13km/h 85% 0in /  0.0mm
10:39 55.9 °F /  13.3 °C 51.4 °F /  10.8 °C 29.9in /  1011.5hPa NNE 5.2mph /  8.4km/h 7.4mph /  11.9km/h 85% 0in /  0.0mm
10:44 55.9 °F /  13.3 °C 51.4 °F /  10.8 °C 29.9in /  1011.5hPa NNO 4.5mph /  7.3km/h 7mph /  11.3km/h 85% 0in /  0.0mm
10:49 56.1 °F /  13.4 °C 51.6 °F /  10.9 °C 29.9in /  1011.5hPa NNE 4.3mph /  6.9km/h 6.9mph /  11.1km/h 84.6% 0in /  0.0mm
10:54 56.1 °F /  13.4 °C 51.4 °F /  10.8 °C 29.9in /  1011.7hPa NNO 3.8mph /  6.1km/h 7mph /  11.3km/h 84% 0in /  0.0mm
10:59 56.1 °F /  13.4 °C 51.4 °F /  10.8 °C 29.9in /  1011.7hPa NNO 3.6mph /  5.8km/h 7mph /  11.3km/h 84% 0in /  0.0mm
11:04 56.3 °F /  13.5 °C 51.4 °F /  10.8 °C 29.9in /  1011.7hPa NO 3.2mph /  5.2km/h 6mph /  9.7km/h 84% 0in /  0.0mm
11:09 56.5 °F /  13.6 °C 51.6 °F /  10.9 °C 29.9in /  1011.7hPa NO 3.1mph /  5km/h 5mph /  8km/h 84% 0in /  0.0mm
11:14 56.5 °F /  13.6 °C 51.6 °F /  10.9 °C 29.9in /  1011.7hPa North 2.6mph /  4.2km/h 5mph /  8km/h 84% 0in /  0.0mm
11:19 56.7 °F /  13.7 °C 51.8 °F /  11 °C 29.9in /  1011.7hPa North 2.4mph /  3.9km/h 5.2mph /  8.4km/h 84% 0in /  0.0mm
11:24 56.7 °F /  13.7 °C 51.6 °F /  10.9 °C 29.9in /  1011.8hPa NO 2mph /  3.2km/h 6.2mph /  10km/h 83.3% 0in /  0.0mm
11:29 56.8 °F /  13.8 °C 51.6 °F /  10.9 °C 29.9in /  1011.8hPa NO 1.8mph /  2.9km/h 6.9mph /  11.1km/h 83% 0in /  0.0mm
11:34 56.8 °F /  13.8 °C 51.8 °F /  11 °C 29.9in /  1011.8hPa NO 2.6mph /  4.2km/h 7mph /  11.3km/h 82.8% 0in /  0.0mm
11:39 56.8 °F /  13.8 °C 51.4 °F /  10.8 °C 29.9in /  1011.8hPa ONO 2.9mph /  4.7km/h 6.2mph /  10km/h 82% 0in /  0.0mm
11:44 57 °F /  13.9 °C 51.6 °F /  10.9 °C 29.9in /  1011.8hPa NO 3.4mph /  5.5km/h 6mph /  9.7km/h 82% 0in /  0.0mm
11:49 57 °F /  13.9 °C 51.6 °F /  10.9 °C 29.9in /  1011.8hPa ONO 3.6mph /  5.8km/h 5mph /  8km/h 82% 0in /  0.0mm
11:54 57.2 °F /  14 °C 51.8 °F /  11 °C 29.9in /  1011.9hPa Oeste 2.4mph /  3.9km/h 5mph /  8km/h 82% 0in /  0.0mm
11:59 57.2 °F /  14 °C 51.8 °F /  11 °C 29.9in /  1011.9hPa ONO 2mph /  3.2km/h 5.2mph /  8.4km/h 82% 0in /  0.0mm
12:04 57.2 °F /  14 °C 51.8 °F /  11 °C 29.9in /  1011.9hPa Oeste 2.7mph /  4.3km/h 5mph /  8km/h 82% 0in /  0.0mm
12:09 57.2 °F /  14 °C 51.8 °F /  11 °C 29.9in /  1011.9hPa Oeste 2.9mph /  4.7km/h 5mph /  8km/h 82% 0in /  0.0mm
12:14 57 °F /  13.9 °C 51.4 °F /  10.8 °C 29.9in /  1011.7hPa ONO 2.1mph /  3.4km/h 5mph /  8km/h 81.4% 0in /  0.0mm
12:19 57 °F /  13.9 °C 51.6 °F /  10.9 °C 29.9in /  1011.7hPa Oeste 1.8mph /  2.9km/h 5mph /  8km/h 82% 0in /  0.0mm
12:24 57 °F /  13.9 °C 51.6 °F /  10.9 °C 29.9in /  1011.7hPa Oeste 1.8mph /  2.9km/h 4.6mph /  7.4km/h 82% 0in /  0.0mm
12:29 57.2 °F /  14 °C 51.8 °F /  11 °C 29.9in /  1011.6hPa NO 1.8mph /  2.9km/h 5mph /  8km/h 82% 0in /  0.0mm
12:34 57.2 °F /  14 °C 51.6 °F /  10.9 °C 29.9in /  1011.6hPa NO 1.9mph /  3.1km/h 5mph /  8km/h 81.7% 0in /  0.0mm
12:39 57.2 °F /  14 °C 51.4 °F /  10.8 °C 29.9in /  1011.6hPa NO 2mph /  3.2km/h 5mph /  8km/h 81% 0in /  0.0mm
12:44 57.4 °F /  14.1 °C 51.6 °F /  10.9 °C 29.9in /  1011.4hPa NO 1.9mph /  3km/h 3.1mph /  5km/h 81% 0in /  0.0mm
12:49 57.6 °F /  14.2 °C 51.6 °F /  10.9 °C 29.9in /  1011.4hPa NO 1.8mph /  2.9km/h 3.1mph /  5km/h 81% 0in /  0.0mm
12:54 57.6 °F /  14.2 °C 52 °F /  11.1 °C 29.9in /  1011.4hPa NO 1.5mph /  2.4km/h 3mph /  4.8km/h 81.5% 0in /  0.0mm
12:59 57.7 °F /  14.3 °C 52.3 °F /  11.3 °C 29.9in /  1011.2hPa NO 1.4mph /  2.2km/h   82% 0in /  0.0mm
13:04 57.9 °F /  14.4 °C 52.3 °F /  11.3 °C 29.9in /  1011.2hPa NO 0.4mph /  0.6km/h   81.7% 0in /  0.0mm
13:09 57.9 °F /  14.4 °C 52.2 °F /  11.2 °C 29.9in /  1011.2hPa Calm     81% 0in /  0.0mm
13:14 58.1 °F /  14.5 °C 52.3 °F /  11.3 °C 29.9in /  1011.2hPa Calm     81% 0in /  0.0mm
13:19 58.3 °F /  14.6 °C 52.5 °F /  11.4 °C 29.9in /  1011.2hPa Calm   3.6mph /  5.8km/h 81% 0in /  0.0mm
13:24 58.3 °F /  14.6 °C 52.5 °F /  11.4 °C 29.9in /  1011.2hPa Calm   4.3mph /  6.9km/h 81% 0in /  0.0mm
13:29 58.3 °F /  14.6 °C 52.3 °F /  11.3 °C 29.9in /  1011.1hPa Calm   5mph /  8km/h 80.5% 0in /  0.0mm
13:34 58.3 °F /  14.6 °C 52.5 °F /  11.4 °C 29.9in /  1011.1hPa Oeste 1.4mph /  2.3km/h 5mph /  8km/h 80.8% 0in /  0.0mm
13:39 58.5 °F /  14.7 °C 52.3 °F /  11.3 °C 29.9in /  1011.2hPa Oeste 2mph /  3.2km/h 4mph /  6.4km/h 80.3% 0in /  0.0mm
13:44 58.5 °F /  14.7 °C 52.3 °F /  11.3 °C 29.9in /  1011.2hPa Oeste 0.6mph /  0.9km/h 2.4mph /  3.9km/h 80.4% 0in /  0.0mm
13:49 58.5 °F /  14.7 °C 52.5 °F /  11.4 °C 29.9in /  1011.2hPa Calm   4.6mph /  7.4km/h 81% 0in /  0.0mm
13:54 58.5 °F /  14.7 °C 52.5 °F /  11.4 °C 29.9in /  1011.2hPa NNO 1.4mph /  2.3km/h 5.8mph /  9.3km/h 80.7% 0in /  0.0mm
13:59 58.5 °F /  14.7 °C 52.3 °F /  11.3 °C 29.9in /  1010.8hPa NO 2mph /  3.2km/h 6.2mph /  10km/h 80% 0in /  0.0mm
14:04 58.5 °F /  14.7 °C 52.3 °F /  11.3 °C 29.9in /  1010.8hPa NO 3.2mph /  5.2km/h 6mph /  9.7km/h 80% 0in /  0.0mm
14:09 58.5 °F /  14.7 °C 52.3 °F /  11.3 °C 29.9in /  1010.8hPa NO 3.6mph /  5.8km/h 6mph /  9.7km/h 80% 0in /  0.0mm
14:14 58.6 °F /  14.8 °C 52.3 °F /  11.3 °C 29.8in /  1010.7hPa NO 3.2mph /  5.2km/h 5mph /  8km/h 79.6% 0in /  0.0mm
14:19 58.6 °F /  14.8 °C 52.2 °F /  11.2 °C 29.8in /  1010.7hPa ONO 3.1mph /  5km/h 5mph /  8km/h 79% 0in /  0.0mm
14:24 58.6 °F /  14.8 °C 52.2 °F /  11.2 °C 29.9in /  1010.8hPa ONO 2.6mph /  4.2km/h 4mph /  6.4km/h 79% 0in /  0.0mm
14:29 58.6 °F /  14.8 °C 52.5 °F /  11.4 °C 29.9in /  1010.8hPa ONO 2.4mph /  3.9km/h 4mph /  6.4km/h 79.7% 0in /  0.0mm
14:34 58.6 °F /  14.8 °C 52.3 °F /  11.3 °C 29.9in /  1010.8hPa ONO 2.1mph /  3.4km/h 5.2mph /  8.4km/h 79.5% 0in /  0.0mm
14:39 58.6 °F /  14.8 °C 52.3 °F /  11.3 °C 29.9in /  1010.8hPa Oeste 2mph /  3.2km/h 5mph /  8km/h 79.6% 0in /  0.0mm
14:44 58.6 °F /  14.8 °C 52.5 °F /  11.4 °C 29.8in /  1010.7hPa Oeste 2.3mph /  3.7km/h 5mph /  8km/h 80% 0in /  0.0mm
14:49 58.8 °F /  14.9 °C 52.7 °F /  11.5 °C 29.8in /  1010.7hPa Oeste 2.4mph /  3.9km/h 4mph /  6.4km/h 80% 0in /  0.0mm
14:54 58.6 °F /  14.8 °C 52.3 °F /  11.3 °C 29.8in /  1010.7hPa Oeste 2mph /  3.2km/h 4.6mph /  7.4km/h 79.4% 0in /  0.0mm
14:59 58.6 °F /  14.8 °C 52.5 °F /  11.4 °C 29.8in /  1010.7hPa Sur 1.8mph /  2.9km/h 5mph /  8km/h 80.2% 0in /  0.0mm
15:04 58.6 °F /  14.8 °C 52.9 °F /  11.6 °C 29.8in /  1010.7hPa SSE 2.6mph /  4.2km/h 5.8mph /  9.3km/h 81% 0in /  0.0mm
15:09 58.5 °F /  14.7 °C 53.1 °F /  11.7 °C 29.9in /  1010.8hPa Sur 2.9mph /  4.7km/h 6mph /  9.7km/h 82% 0in /  0.0mm
15:14 58.5 °F /  14.7 °C 53.2 °F /  11.8 °C 29.9in /  1010.8hPa Sur 3mph /  4.9km/h 5mph /  8km/h 82.8% 0in /  0.0mm
15:19 58.3 °F /  14.6 °C 53.2 °F /  11.8 °C 29.9in /  1010.8hPa Sur 3.1mph /  5km/h 6.9mph /  11.1km/h 83.3% 0in /  0.0mm
15:24 57.9 °F /  14.4 °C 53.2 °F /  11.8 °C 29.9in /  1010.8hPa Sur 3.5mph /  5.6km/h 7mph /  11.3km/h 84.4% 0in /  0.0mm
15:29 57.9 °F /  14.4 °C 53.4 °F /  11.9 °C 29.9in /  1010.8hPa Sur 3.6mph /  5.8km/h 6.9mph /  11.1km/h 85% 0in /  0.0mm
15:34 57.7 °F /  14.3 °C 53.6 °F /  12 °C 29.9in /  1010.8hPa SSE 3.6mph /  5.8km/h 7mph /  11.3km/h 85.9% 0in /  0.0mm
15:39 57.7 °F /  14.3 °C 53.6 °F /  12 °C 29.9in /  1010.9hPa Sur 3.6mph /  5.8km/h 6.2mph /  10km/h 86% 0in /  0.0mm
15:44 57.6 °F /  14.2 °C 53.6 °F /  12 °C 29.9in /  1010.9hPa Sur 3.9mph /  6.3km/h 6.2mph /  10km/h 86.6% 0in /  0.0mm
15:49 57.6 °F /  14.2 °C 53.6 °F /  12 °C 29.9in /  1010.9hPa SE 4mph /  6.5km/h 6.9mph /  11.1km/h 87% 0in /  0.0mm
15:54 57.4 °F /  14.1 °C 53.4 °F /  11.9 °C 29.9in /  1011.0hPa SSE 4mph /  6.5km/h 7mph /  11.3km/h 87% 0in /  0.0mm
15:59 57.4 °F /  14.1 °C 53.8 °F /  12.1 °C 29.9in /  1011.0hPa SSE 4mph /  6.5km/h 8.1mph /  13km/h 87.7% 0.02in /  0.5mm
16:04 57 °F /  13.9 °C 53.4 °F /  11.9 °C 29.9in /  1011.0hPa SSE 4.5mph /  7.3km/h 8mph /  12.9km/h 88% 0.03in /  0.7mm
16:09 56.8 °F /  13.8 °C 53.4 °F /  11.9 °C 29.9in /  1011.0hPa SSE 4.7mph /  7.6km/h 7mph /  11.3km/h 88.7% 0.03in /  0.7mm
16:14 56.7 °F /  13.7 °C 53.6 °F /  12 °C 29.9in /  1011.0hPa Sur 3.5mph /  5.7km/h 5mph /  8km/h 89% 0.03in /  0.7mm
16:19 56.7 °F /  13.7 °C 53.8 °F /  12.1 °C 29.9in /  1011.0hPa Sur 3.1mph /  5km/h 5mph /  8km/h 89.7% 0.03in /  0.7mm
16:24 56.7 °F /  13.7 °C 53.8 °F /  12.1 °C 29.9in /  1011.2hPa Sur 2.6mph /  4.2km/h 5mph /  8km/h 90% 0.03in /  0.7mm
16:29 56.7 °F /  13.7 °C 53.8 °F /  12.1 °C 29.9in /  1011.2hPa SE 2.4mph /  3.9km/h 5.8mph /  9.3km/h 90.1% 0.04in /  1.0mm
16:34 56.7 °F /  13.7 °C 54.1 °F /  12.3 °C 29.9in /  1011.2hPa ESE 2.9mph /  4.7km/h 6mph /  9.7km/h 91% 0.05in /  1.2mm
16:39 56.5 °F /  13.6 °C 54 °F /  12.2 °C 29.9in /  1011.3hPa SE 3.1mph /  5km/h 5mph /  8km/h 91% 0.06in /  1.5mm
16:44 56.3 °F /  13.5 °C 53.8 °F /  12.1 °C 29.9in /  1011.3hPa SE 2.3mph /  3.7km/h 5mph /  8km/h 91% 0.08in /  2.0mm
16:49 56.3 °F /  13.5 °C 54 °F /  12.2 °C 29.9in /  1011.3hPa SE 2mph /  3.2km/h   91.6% 0.1in /  2.5mm
16:54 56.3 °F /  13.5 °C 54 °F /  12.2 °C 29.9in /  1011.4hPa SE 0.6mph /  0.9km/h 4.6mph /  7.4km/h 92% 0.12in /  3.0mm
16:59 56.3 °F /  13.5 °C 54 °F /  12.2 °C 29.9in /  1011.4hPa Calm   5.2mph /  8.4km/h 92% 0.12in /  3.0mm
17:04 56.1 °F /  13.4 °C 53.8 °F /  12.1 °C 29.9in /  1011.4hPa ONO 1.8mph /  2.9km/h 6.9mph /  11.1km/h 92% 0.1in /  2.5mm
17:09 56.1 °F /  13.4 °C 53.8 °F /  12.1 °C 29.9in /  1011.4hPa NNO 2.4mph /  3.9km/h 7mph /  11.3km/h 92% 0.09in /  2.3mm
17:14 56.1 °F /  13.4 °C 53.8 °F /  12.1 °C 29.9in /  1011.3hPa ONO 2.4mph /  3.9km/h 6mph /  9.7km/h 92% 0.09in /  2.3mm
17:19 56.1 °F /  13.4 °C 53.8 °F /  12.1 °C 29.9in /  1011.3hPa ONO 2.4mph /  3.9km/h 5mph /  8km/h 92% 0.09in /  2.3mm
17:24 56.1 °F /  13.4 °C 54 °F /  12.2 °C 29.9in /  1011.3hPa Oeste 2.1mph /  3.4km/h 4.6mph /  7.4km/h 92.7% 0.09in /  2.3mm
17:29 56.1 °F /  13.4 °C 54.1 °F /  12.3 °C 29.9in /  1011.3hPa Oeste 2mph /  3.2km/h 5mph /  8km/h 93% 0.08in /  2.0mm
17:34 56.3 °F /  13.5 °C 54.1 °F /  12.3 °C 29.9in /  1011.3hPa Oeste 2.3mph /  3.7km/h 5mph /  8km/h 93% 0.09in /  2.3mm
17:39 56.3 °F /  13.5 °C 54.3 °F /  12.4 °C 29.9in /  1011.3hPa Oeste 2.4mph /  3.9km/h 3mph /  4.8km/h 93% 0.09in /  2.3mm
17:44 56.3 °F /  13.5 °C 54.3 °F /  12.4 °C 29.9in /  1011.2hPa Oeste 0.7mph /  1.1km/h   93% 0.08in /  2.0mm
17:49 56.3 °F /  13.5 °C 54.3 °F /  12.4 °C 29.9in /  1011.2hPa Calm   2.4mph /  3.9km/h 93% 0.06in /  1.5mm
17:54 56.3 °F /  13.5 °C 54.3 °F /  12.4 °C 29.9in /  1011.4hPa Calm   2mph /  3.2km/h 93% 0.04in /  1.0mm
17:59 56.5 °F /  13.6 °C 54.5 °F /  12.5 °C 29.9in /  1011.4hPa Calm     93% 0.02in /  0.5mm
18:04 56.5 °F /  13.6 °C 54.5 °F /  12.5 °C 29.9in /  1011.4hPa Calm     93% 0.03in /  0.8mm
18:09 56.5 °F /  13.6 °C 54.5 °F /  12.5 °C 29.9in /  1011.5hPa Calm     93% 0.04in /  1.1mm
18:14 56.3 °F /  13.5 °C 54.3 °F /  12.4 °C 29.9in /  1011.5hPa Calm     93% 0.04in /  1.1mm
18:19 56.3 °F /  13.5 °C 54.5 °F /  12.5 °C 29.9in /  1011.5hPa Calm     93.5% 0.06in /  1.6mm
18:24 56.3 °F /  13.5 °C 54.5 °F /  12.5 °C 29.9in /  1011.6hPa Calm   8.5mph /  13.7km/h 93.6% 0.07in /  1.8mm
18:29 56.1 °F /  13.4 °C 54.1 °F /  12.3 °C 29.9in /  1011.6hPa Calm   9mph /  14.5km/h 93.2% 0.07in /  1.8mm
18:34 56.1 °F /  13.4 °C 54.3 °F /  12.4 °C 29.9in /  1011.6hPa NE 2.5mph /  4.1km/h 8mph /  12.9km/h 94% 0.07in /  1.8mm
18:39 56.1 °F /  13.4 °C 54.3 °F /  12.4 °C 29.9in /  1011.8hPa NE 3.6mph /  5.8km/h 8.1mph /  13km/h 94% 0.05in /  1.3mm
18:44 56.1 °F /  13.4 °C 54.3 °F /  12.4 °C 29.9in /  1011.8hPa NE 4.7mph /  7.6km/h 8mph /  12.9km/h 94% 0.07in /  1.8mm
18:49 55.9 °F /  13.3 °C 54.3 °F /  12.4 °C 29.9in /  1011.8hPa NE 5.2mph /  8.4km/h 8.1mph /  13km/h 94% 0.07in /  1.8mm
18:54 55.9 °F /  13.3 °C 54.1 °F /  12.3 °C 29.9in /  1011.9hPa NE 4.5mph /  7.3km/h 8mph /  12.9km/h 94% 0.07in /  1.8mm
18:59 55.9 °F /  13.3 °C 54.1 °F /  12.3 °C 29.9in /  1011.9hPa NNE 4.3mph /  6.9km/h 7.4mph /  11.9km/h 94% 0.07in /  1.8mm
19:04 55.8 °F /  13.2 °C 54 °F /  12.2 °C 29.9in /  1011.9hPa NE 4.3mph /  6.9km/h 9.2mph /  14.8km/h 94% 0.07in /  1.8mm
19:09 55.6 °F /  13.1 °C 54 °F /  12.2 °C 29.9in /  1012.0hPa NNE 4.3mph /  6.9km/h 9mph /  14.5km/h 94% 0.07in /  1.8mm
19:14 55.8 °F /  13.2 °C 54.1 °F /  12.3 °C 29.9in /  1012.0hPa NNE 5mph /  8km/h 8.1mph /  13km/h 94% 0.06in /  1.5mm
19:19 55.8 °F /  13.2 °C 54.1 °F /  12.3 °C 29.9in /  1012.0hPa NNE 5.2mph /  8.4km/h 7mph /  11.3km/h 94% 0.05in /  1.3mm
19:24 55.8 °F /  13.2 °C 54.1 °F /  12.3 °C 29.9in /  1012.2hPa NE 4.3mph /  7km/h 7mph /  11.3km/h 94.6% 0.04in /  1.0mm
19:29 55.8 °F /  13.2 °C 54.3 °F /  12.4 °C 29.9in /  1012.2hPa NNE 4mph /  6.5km/h 8.1mph /  13km/h 95% 0.03in /  0.8mm
19:34 55.8 °F /  13.2 °C 54.3 °F /  12.4 °C 29.9in /  1012.2hPa NNE 4.5mph /  7.3km/h 9.2mph /  14.8km/h 95% 0.03in /  0.8mm
19:39 55.8 °F /  13.2 °C 54.3 °F /  12.4 °C 29.9in /  1012.5hPa NNE 4.7mph /  7.6km/h 10.4mph /  16.7km/h 95% 0.03in /  0.8mm
19:44 55.6 °F /  13.1 °C 54.1 °F /  12.3 °C 29.9in /  1012.5hPa NNE 5.2mph /  8.4km/h 12.7mph /  20.4km/h 95% 0.03in /  0.8mm
19:49 55.6 °F /  13.1 °C 54.1 °F /  12.3 °C 29.9in /  1012.5hPa NE 5.4mph /  8.7km/h 13mph /  20.9km/h 95% 0.02in /  0.5mm
19:54 55.6 °F /  13.1 °C 54.1 °F /  12.3 °C 29.9in /  1012.6hPa NE 5.4mph /  8.7km/h 12mph /  19.3km/h 95% 0.02in /  0.5mm
19:59 55.4 °F /  13 °C 54.1 °F /  12.3 °C 29.9in /  1012.6hPa NNE 5.4mph /  8.7km/h 10mph /  16.1km/h 95% 0.02in /  0.5mm
20:04 55.4 °F /  13 °C 54 °F /  12.2 °C 29.9in /  1012.6hPa NNE 5.4mph /  8.7km/h 8.1mph /  13km/h 95% 0.03in /  0.8mm
20:09 55.4 °F /  13 °C 54 °F /  12.2 °C 29.9in /  1012.6hPa NNE 5.4mph /  8.7km/h 10.4mph /  16.7km/h 95% 0.03in /  0.8mm
20:14 55.4 °F /  13 °C 54.1 °F /  12.3 °C 29.9in /  1012.6hPa NNE 5.4mph /  8.7km/h 12.7mph /  20.4km/h 95% 0.03in /  0.8mm
20:19 55.6 °F /  13.1 °C 54.1 °F /  12.3 °C 29.9in /  1012.6hPa NNE 5.4mph /  8.7km/h 13mph /  20.9km/h 95% 0.03in /  0.8mm
20:24 55.6 °F /  13.1 °C 54.1 °F /  12.3 °C 29.9in /  1012.9hPa NE 6.5mph /  10.4km/h 12mph /  19.3km/h 95% 0.04in /  1.0mm
20:29 55.6 °F /  13.1 °C 54.5 °F /  12.5 °C 29.9in /  1012.9hPa NE 6.9mph /  11.1km/h 13.8mph /  22.2km/h 95.9% 0.04in /  1.0mm
20:34 55.6 °F /  13.1 °C 54.5 °F /  12.5 °C 29.9in /  1012.9hPa NNE 6.5mph /  10.5km/h 16.3mph /  26.2km/h 96% 0.04in /  1.0mm
20:39 55.6 °F /  13.1 °C 54.5 °F /  12.5 °C 29.9in /  1012.9hPa NNE 6.4mph /  10.3km/h 16.1mph /  25.9km/h 96% 0.05in /  1.3mm
20:44 55.4 °F /  13 °C 54.3 °F /  12.4 °C 29.9in /  1012.8hPa NNE 8.4mph /  13.5km/h 15mph /  24.1km/h 96% 0.05in /  1.3mm
20:49 55.4 °F /  13 °C 54.3 °F /  12.4 °C 29.9in /  1012.8hPa NNE 9.2mph /  14.8km/h 13mph /  20.9km/h 96% 0.04in /  1.1mm
20:54 55.4 °F /  13 °C 54.3 °F /  12.4 °C 29.9in /  1013.0hPa NNE 8.4mph /  13.5km/h 12mph /  19.3km/h 96% 0.04in /  1.1mm
20:59 55.4 °F /  13 °C 54.3 °F /  12.4 °C 29.9in /  1013.0hPa NNE 8.1mph /  13km/h 11mph /  17.7km/h 96% 0.04in /  1.1mm
21:04 55.4 °F /  13 °C 54.3 °F /  12.4 °C 29.9in /  1013.0hPa North 6.7mph /  10.8km/h 10.4mph /  16.7km/h 96% 0.03in /  0.8mm
21:09 55.4 °F /  13 °C 54.3 °F /  12.4 °C 29.9in /  1013.0hPa NNE 6.2mph /  10km/h 10mph /  16.1km/h 96% 0.03in /  0.8mm
21:14 55.4 °F /  13 °C 54.3 °F /  12.4 °C 29.9in /  1013.0hPa NNE 5.6mph /  9km/h 10mph /  16.1km/h 96% 0.02in /  0.5mm
21:19 55.2 °F /  12.9 °C 54.1 °F /  12.3 °C 29.9in /  1013.0hPa NNE 5.4mph /  8.7km/h 10.4mph /  16.7km/h 96% 0.02in /  0.5mm
21:24 55.2 °F /  12.9 °C 54.1 °F /  12.3 °C 29.9in /  1013.1hPa NNE 5.4mph /  8.7km/h 9mph /  14.5km/h 96% 0.03in /  0.8mm
21:29 55.2 °F /  12.9 °C 54.1 °F /  12.3 °C 29.9in /  1013.1hPa NNE 5.4mph /  8.7km/h 7mph /  11.3km/h 96% 0.03in /  0.8mm
21:34 55.2 °F /  12.9 °C 54.1 °F /  12.3 °C 29.9in /  1013.1hPa NNE 4.2mph /  6.7km/h 6mph /  9.7km/h 96% 0.03in /  0.8mm
21:39 55.2 °F /  12.9 °C 54.1 °F /  12.3 °C 29.9in /  1013.1hPa NNE 3.6mph /  5.8km/h 6mph /  9.7km/h 96% 0.02in /  0.5mm
21:44 55.2 °F /  12.9 °C 54.1 °F /  12.3 °C 29.9in /  1013.1hPa NNE 2.7mph /  4.4km/h 5mph /  8km/h 96% 0.02in /  0.5mm
21:49 55.2 °F /  12.9 °C 54.1 °F /  12.3 °C 29.9in /  1013.1hPa NNE 2.4mph /  3.9km/h 3.6mph /  5.8km/h 96% 0.02in /  0.5mm
21:54 55.2 °F /  12.9 °C 54.1 °F /  12.3 °C 29.9in /  1013.2hPa NNE 2mph /  3.2km/h 4.6mph /  7.4km/h 96% 0.02in /  0.5mm
21:59 55.2 °F /  12.9 °C 54.1 °F /  12.3 °C 29.9in /  1013.2hPa NNE 1.8mph /  2.9km/h 6.9mph /  11.1km/h 96% 0.02in /  0.5mm
22:04 55.2 °F /  12.9 °C 54.1 °F /  12.3 °C 29.9in /  1013.2hPa NE 2.6mph /  4.2km/h 7mph /  11.3km/h 96% 0.02in /  0.5mm
22:09 55.2 °F /  12.9 °C 54.1 °F /  12.3 °C 29.9in /  1013.2hPa NE 2.9mph /  4.7km/h 6mph /  9.7km/h 96% 0.02in /  0.5mm
22:14 55.2 °F /  12.9 °C 54.1 °F /  12.3 °C 29.9in /  1013.2hPa NE 3.7mph /  5.9km/h 15.6mph /  25.1km/h 96% 0.02in /  0.5mm
22:19 55 °F /  12.8 °C 53.8 °F /  12.1 °C 29.9in /  1013.2hPa NNE 4mph /  6.5km/h 17.3mph /  27.8km/h 95.7% 0.02in /  0.5mm
22:24 54.9 °F /  12.7 °C 53.6 °F /  12 °C 29.9in /  1013.2hPa NNE 6.1mph /  9.8km/h 17.3mph /  27.8km/h 95% 0.02in /  0.5mm
22:29 54.9 °F /  12.7 °C 53.4 °F /  11.9 °C 29.9in /  1013.2hPa NNE 6.9mph /  11.1km/h 17.5mph /  28.2km/h 94.7% 0in /  0.0mm
22:34 54.9 °F /  12.7 °C 53.2 °F /  11.8 °C 29.9in /  1013.2hPa NNE 10.1mph /  16.2km/h 17.3mph /  27.8km/h 94% 0in /  0.0mm
22:39 54.9 °F /  12.7 °C 53.1 °F /  11.7 °C 29.9in /  1013.2hPa NNE 11.2mph /  18km/h 16.1mph /  25.9km/h 93.7% 0in /  0.0mm
22:44 55 °F /  12.8 °C 53.1 °F /  11.7 °C 29.9in /  1013.2hPa NNE 10.1mph /  16.3km/h 17.8mph /  28.6km/h 93% 0in /  0.0mm
22:49 55.2 °F /  12.9 °C 53.2 °F /  11.8 °C 29.9in /  1013.2hPa NNE 9.7mph /  15.6km/h 18.4mph /  29.6km/h 93% 0in /  0.0mm
22:54 55.4 °F /  13 °C 53.4 °F /  11.9 °C 29.9in /  1013.3hPa NE 10.1mph /  16.2km/h 17mph /  27.4km/h 93% 0in /  0.0mm
22:59 55.4 °F /  13 °C 53.4 °F /  11.9 °C 29.9in /  1013.3hPa NE 10.2mph /  16.4km/h 15.2mph /  24.5km/h 93.3% 0in /  0.0mm
23:04 55.4 °F /  13 °C 53.8 °F /  12.1 °C 29.9in /  1013.3hPa NE 8.9mph /  14.4km/h 15mph /  24.1km/h 94% 0in /  0.0mm
23:09 55.4 °F /  13 °C 53.8 °F /  12.1 °C 29.9in /  1013.3hPa NE 8.5mph /  13.7km/h 17.3mph /  27.8km/h 94% 0.01in /  0.2mm
23:14 55.4 °F /  13 °C 53.8 °F /  12.1 °C 29.9in /  1013.3hPa NE 8.6mph /  13.9km/h 18.5mph /  29.8km/h 94% 0.02in /  0.5mm
23:19 55.4 °F /  13 °C 53.8 °F /  12.1 °C 29.9in /  1013.3hPa NE 8.7mph /  14km/h 20.7mph /  33.3km/h 94% 0.03in /  0.7mm
23:24 55.2 °F /  12.9 °C 53.6 °F /  12 °C 29.9in /  1013.3hPa NNE 9.4mph /  15.2km/h 21mph /  33.8km/h 94% 0.04in /  1.0mm
23:29 55.2 °F /  12.9 °C 53.4 °F /  11.9 °C 29.9in /  1013.3hPa NNE 9.7mph /  15.6km/h 16mph /  25.7km/h 94% 0.04in /  1.0mm
23:34 55.2 °F /  12.9 °C 53.4 °F /  11.9 °C 29.9in /  1013.3hPa NE 8.9mph /  14.4km/h 15.2mph /  24.5km/h 94% 0.04in /  1.0mm
23:39 55.2 °F /  12.9 °C 53.4 °F /  11.9 °C 29.9in /  1013.4hPa NE 8.7mph /  14km/h 16.8mph /  27km/h 94% 0.04in /  1.0mm
23:44 55.2 °F /  12.9 °C 53.6 °F /  12 °C 29.9in /  1013.4hPa NE 9.1mph /  14.6km/h 17.3mph /  27.8km/h 94.1% 0.05in /  1.3mm
23:49 55 °F /  12.8 °C 53.6 °F /  12 °C 29.9in /  1013.4hPa NE 9.2mph /  14.8km/h 18.5mph /  29.8km/h 95% 0.06in /  1.5mm
23:54 55 °F /  12.8 °C 53.6 °F /  12 °C 29.9in /  1013.4hPa NNE 9.6mph /  15.4km/h 19mph /  30.6km/h 95% 0.07in /  1.8mm
23:59 55 °F /  12.8 °C 53.2 °F /  11.8 °C 29.9in /  1013.4hPa NNE 9.7mph /  15.6km/h 18.4mph /  29.6km/h 94.1% 0.08in /  2.0mm
Murcia-Puente Tocinos, España
Compliments of Weather Underground - 3 mb

La estación de MeteoMurcia.com, publica sus datos en los siguientes proyectos:

Weather Underground PWS IMURCIAP2 Meteoclimatic www.awekas.at

W3Counter
Web Analytics